cloudy cloudy

Author Topic: This must not be in the metar library.  (Read 1084 times)

0 Members and 1 Guest are viewing this topic.

Offline grhughes

  • Posts: 1,953
  • Huntsville,Alabama, USA
    • RuppWorld
This must not be in the metar library.
« on: June 11, 2003, 07:33:35 PM »
Huntsville, Huntsville International / Jones Field, AL, United States (KHSV) 34-38-37N 086-47-08W 191M
Jun 11, 2003 - 04:02 PM EDT / 2003.06.11 2002 UTC
Wind: from the SSW (210 degrees) at 20 MPH (17 KT) gusting to 25 MPH (22 KT):0
Visibility: 7 mile(s):0
Sky conditions: overcast
Weather: light rain with thunder; Cumulonimbus clouds, lightning observed
Precipitation last hour: A trace
Temperature: 82 F (28 C)
Dew Point: 69 F (21 C)
Relative Humidity: 65%
Pressure (altimeter): 29.91 in. Hg (1012 hPa)
ob: KHSV 112002Z 21017G22KT 7SM -TSRA SCT040CB SCT055 OVC070 28/21 A2991 RMK AO2 TSB02RAB00 OCNL LTGICCCCG S-N TS S-N MOV NE P0000
cycle: 20


Its raining here and the mostly sunny icon is being display on the summary gif.
-Rupp

WinXP
Davis VP

Offline Weather Display

  • Posts: 86,744
  • Davis VP2
  • New Zealand
    • Weather Display
This must not be in the metar library.
« Reply #1 on: June 11, 2003, 07:51:39 PM »
i have improved this more
is that with a new 9.79d ?
try a new 9.79d